createdAt,value
2022-09-27T00:00:15.472Z,986.33
2022-09-27T00:01:15.514Z,986.36
2022-09-27T00:02:15.454Z,986.36
2022-09-27T00:03:15.407Z,986.36
2022-09-27T00:04:15.400Z,986.37
2022-09-27T00:05:15.454Z,986.39
2022-09-27T00:06:15.385Z,986.38
2022-09-27T00:07:15.371Z,986.37
2022-09-27T00:08:15.359Z,986.42
2022-09-27T00:09:15.499Z,986.40
2022-09-27T00:10:15.351Z,986.40
2022-09-27T00:11:15.419Z,986.34
2022-09-27T00:12:15.308Z,986.43
2022-09-27T00:13:15.300Z,986.40
2022-09-27T00:14:15.283Z,986.43
2022-09-27T00:15:15.280Z,986.41
2022-09-27T00:16:15.403Z,986.39
2022-09-27T00:17:15.277Z,986.43
2022-09-27T00:18:15.241Z,986.42
2022-09-27T00:19:15.595Z,986.40
2022-09-27T00:20:15.241Z,986.40
2022-09-27T00:21:15.228Z,986.44
2022-09-27T00:22:15.208Z,986.42
2022-09-27T00:23:15.216Z,986.46
2022-09-27T00:24:15.186Z,986.46
2022-09-27T00:25:15.162Z,986.49
2022-09-27T00:26:15.182Z,986.49
2022-09-27T00:27:15.137Z,986.52
2022-09-27T00:28:15.143Z,986.50
2022-09-27T00:29:15.236Z,986.50
2022-09-27T00:30:15.115Z,986.53
2022-09-27T00:31:15.216Z,986.56
2022-09-27T00:32:15.111Z,986.55
2022-09-27T00:33:15.084Z,986.54
2022-09-27T00:34:15.051Z,986.55
2022-09-27T00:35:15.122Z,986.53
2022-09-27T00:36:15.038Z,986.58
2022-09-27T00:37:15.105Z,986.53
2022-09-27T00:38:15.004Z,986.54
2022-09-27T00:39:15.189Z,986.55
2022-09-27T00:40:19.379Z,986.53
2022-09-27T00:41:14.991Z,986.53
2022-09-27T00:42:14.972Z,986.53
2022-09-27T00:43:15.001Z,986.58
2022-09-27T00:44:14.987Z,986.60
2022-09-27T00:45:14.932Z,986.61
2022-09-27T00:46:14.976Z,986.58
2022-09-27T00:47:14.904Z,986.65
2022-09-27T00:48:14.940Z,986.58
2022-09-27T00:49:15.010Z,986.61
2022-09-27T00:50:14.893Z,986.54
2022-09-27T00:51:14.861Z,986.59
2022-09-27T00:52:14.864Z,986.63
2022-09-27T00:53:14.845Z,986.63
2022-09-27T00:54:14.849Z,986.64
2022-09-27T00:55:14.819Z,986.60
2022-09-27T00:56:14.817Z,986.60
2022-09-27T00:57:14.799Z,986.63
2022-09-27T00:58:14.802Z,986.64
2022-09-27T00:59:14.808Z,986.60
2022-09-27T01:00:14.757Z,986.60
2022-09-27T01:01:14.812Z,986.64
2022-09-27T01:02:14.762Z,986.65
2022-09-27T01:03:14.736Z,986.64
2022-09-27T01:04:14.754Z,986.69
2022-09-27T01:05:14.734Z,986.65
2022-09-27T01:06:14.751Z,986.63
2022-09-27T01:07:14.680Z,986.64
2022-09-27T01:08:14.711Z,986.63
2022-09-27T01:09:14.829Z,986.68
2022-09-27T01:10:14.646Z,986.65
2022-09-27T01:11:14.661Z,986.68
2022-09-27T01:12:14.633Z,986.69
2022-09-27T01:13:14.648Z,986.67
2022-09-27T01:14:14.631Z,986.69
2022-09-27T01:15:14.587Z,986.72
2022-09-27T01:16:14.629Z,986.70
2022-09-27T01:17:14.602Z,986.69
2022-09-27T01:18:15.080Z,986.66
2022-09-27T01:19:14.709Z,986.75
2022-09-27T01:20:14.554Z,986.74
2022-09-27T01:21:14.528Z,986.78
2022-09-27T01:22:14.561Z,986.75
2022-09-27T01:23:14.515Z,986.80
2022-09-27T01:24:14.514Z,986.80
2022-09-27T01:25:14.485Z,986.79
2022-09-27T01:26:14.489Z,986.79
2022-09-27T01:27:14.488Z,986.79
2022-09-27T01:28:14.458Z,986.76
2022-09-27T01:29:14.483Z,986.79
2022-09-27T01:30:14.423Z,986.78
2022-09-27T01:31:14.491Z,986.83
2022-09-27T01:32:14.426Z,986.81
2022-09-27T01:33:14.391Z,986.82
2022-09-27T01:34:14.374Z,986.77
2022-09-27T01:35:14.353Z,986.86
2022-09-27T01:36:14.366Z,986.84
2022-09-27T01:37:14.352Z,986.80
2022-09-27T01:38:14.348Z,986.80
2022-09-27T01:39:14.385Z,986.80
2022-09-27T01:40:14.382Z,986.85
2022-09-27T01:41:14.317Z,986.84
2022-09-27T01:42:17.375Z,986.82
2022-09-27T01:43:14.299Z,986.85
2022-09-27T01:44:14.306Z,986.79
2022-09-27T01:45:14.264Z,986.83
2022-09-27T01:46:14.271Z,986.83
2022-09-27T01:47:14.258Z,986.88
2022-09-27T01:48:14.217Z,986.87
2022-09-27T01:49:14.287Z,986.86
2022-09-27T01:50:14.193Z,986.87
2022-09-27T01:51:14.178Z,986.86
2022-09-27T01:52:14.199Z,986.88
2022-09-27T01:53:14.168Z,986.84
2022-09-27T01:54:14.178Z,986.86
2022-09-27T01:55:14.136Z,986.86
2022-09-27T01:56:14.189Z,986.87
2022-09-27T01:57:14.155Z,986.86
2022-09-27T01:58:14.104Z,986.88
2022-09-27T01:59:14.170Z,986.87
2022-09-27T02:00:14.089Z,986.84
2022-09-27T02:01:14.086Z,986.89
2022-09-27T02:02:14.141Z,986.90
2022-09-27T02:03:14.054Z,986.89
2022-09-27T02:04:14.061Z,986.85
2022-09-27T02:05:14.060Z,986.87
2022-09-27T02:06:14.020Z,986.87
2022-09-27T02:07:14.021Z,986.87
2022-09-27T02:08:14.001Z,986.84
2022-09-27T02:09:14.120Z,986.89
2022-09-27T02:10:13.962Z,986.91
2022-09-27T02:11:13.979Z,986.91
2022-09-27T02:12:13.949Z,986.85
2022-09-27T02:13:13.944Z,986.92
2022-09-27T02:14:13.956Z,986.90
2022-09-27T02:15:13.912Z,986.90
2022-09-27T02:16:13.941Z,986.91
2022-09-27T02:17:13.906Z,986.92
2022-09-27T02:18:13.890Z,986.91
2022-09-27T02:19:13.933Z,986.90
2022-09-27T02:20:13.880Z,986.90
2022-09-27T02:21:13.901Z,986.92
2022-09-27T02:22:13.831Z,986.89
2022-09-27T02:23:13.831Z,986.93
2022-09-27T02:24:13.810Z,986.95
2022-09-27T02:25:13.823Z,986.94
2022-09-27T02:26:13.813Z,986.93
2022-09-27T02:27:13.827Z,986.94
2022-09-27T02:28:13.775Z,986.91
2022-09-27T02:29:13.824Z,986.94
2022-09-27T02:30:13.743Z,986.91
2022-09-27T02:31:13.785Z,986.94
2022-09-27T02:32:13.731Z,986.92
2022-09-27T02:33:13.771Z,986.95
2022-09-27T02:34:13.726Z,986.96
2022-09-27T02:35:13.701Z,986.95
2022-09-27T02:36:13.734Z,986.93
2022-09-27T02:37:13.663Z,986.94
2022-09-27T02:38:13.645Z,986.94
2022-09-27T02:39:13.654Z,986.97
2022-09-27T02:40:13.843Z,986.94
2022-09-27T02:41:13.658Z,986.95
2022-09-27T02:42:13.596Z,986.97
2022-09-27T02:43:13.612Z,986.98
2022-09-27T02:44:13.613Z,986.98
2022-09-27T02:45:13.620Z,986.99
2022-09-27T02:46:13.597Z,987.01
2022-09-27T02:47:13.599Z,986.98
2022-09-27T02:48:13.535Z,987.03
2022-09-27T02:49:13.581Z,986.99
2022-09-27T02:50:13.539Z,986.98
2022-09-27T02:51:13.519Z,987.03
2022-09-27T02:52:13.558Z,986.97
2022-09-27T02:53:13.471Z,987.03
2022-09-27T02:54:13.480Z,986.95
2022-09-27T02:55:13.457Z,986.94
2022-09-27T02:56:13.458Z,986.97
2022-09-27T02:57:13.494Z,986.95
2022-09-27T02:58:13.451Z,987.00
2022-09-27T02:59:13.454Z,986.97
2022-09-27T03:00:13.465Z,987.00
2022-09-27T03:01:13.441Z,987.03
2022-09-27T03:02:14.087Z,986.96
2022-09-27T03:03:13.493Z,987.01
2022-09-27T03:04:13.360Z,987.00
2022-09-27T03:05:13.333Z,987.00
2022-09-27T03:06:13.349Z,986.97
2022-09-27T03:07:13.406Z,986.99
2022-09-27T03:08:13.334Z,986.97
2022-09-27T03:09:13.373Z,986.95
2022-09-27T03:10:13.292Z,986.95
2022-09-27T03:11:13.291Z,986.97
2022-09-27T03:12:13.316Z,986.92
2022-09-27T03:13:13.248Z,986.93
2022-09-27T03:14:13.244Z,986.97
2022-09-27T03:15:13.229Z,986.98
2022-09-27T03:16:13.216Z,987.00
2022-09-27T03:17:13.307Z,987.01
2022-09-27T03:18:13.209Z,986.99
2022-09-27T03:19:13.254Z,986.99
2022-09-27T03:20:13.196Z,987.03
2022-09-27T03:21:13.152Z,987.03
2022-09-27T03:22:13.199Z,987.06
2022-09-27T03:23:13.146Z,987.08
2022-09-27T03:24:13.146Z,987.03
2022-09-27T03:25:13.120Z,987.03
2022-09-27T03:26:13.413Z,987.08
2022-09-27T03:27:13.128Z,987.05
2022-09-27T03:28:13.079Z,987.10
2022-09-27T03:29:13.131Z,987.08
2022-09-27T03:30:13.079Z,987.09
2022-09-27T03:31:13.146Z,987.12
2022-09-27T03:32:13.059Z,987.11
2022-09-27T03:33:13.045Z,987.08
2022-09-27T03:34:13.007Z,987.09
2022-09-27T03:35:13.015Z,987.13
2022-09-27T03:36:13.017Z,987.05
2022-09-27T03:37:13.007Z,987.06
2022-09-27T03:38:12.966Z,987.10
2022-09-27T03:39:12.973Z,987.05
2022-09-27T03:40:12.978Z,987.15
2022-09-27T03:41:12.960Z,987.09
2022-09-27T03:42:12.954Z,987.13
2022-09-27T03:43:12.911Z,987.13
2022-09-27T03:44:12.912Z,987.15
2022-09-27T03:45:12.930Z,987.16
2022-09-27T03:46:12.958Z,987.15
2022-09-27T03:47:12.894Z,987.17
2022-09-27T03:48:12.884Z,987.18
2022-09-27T03:49:12.865Z,987.17
2022-09-27T03:50:12.868Z,987.19
2022-09-27T03:51:12.813Z,987.20
2022-09-27T03:52:12.846Z,987.23
2022-09-27T03:53:12.803Z,987.18
2022-09-27T03:54:12.783Z,987.16
2022-09-27T03:55:12.775Z,987.19
2022-09-27T03:56:12.754Z,987.16
2022-09-27T03:57:12.788Z,987.16
2022-09-27T03:58:12.756Z,987.14
2022-09-27T03:59:12.747Z,987.19
2022-09-27T04:00:12.706Z,987.22
2022-09-27T04:01:12.747Z,987.22
2022-09-27T04:02:12.771Z,987.23
2022-09-27T04:03:12.682Z,987.20
2022-09-27T04:04:12.665Z,987.21
2022-09-27T04:05:12.682Z,987.31
2022-09-27T04:06:12.639Z,987.25
2022-09-27T04:07:12.660Z,987.27
2022-09-27T04:08:12.625Z,987.24
2022-09-27T04:09:12.610Z,987.26
2022-09-27T04:10:12.617Z,987.29
2022-09-27T04:11:12.608Z,987.26
2022-09-27T04:12:12.632Z,987.26
2022-09-27T04:13:12.585Z,987.28
2022-09-27T04:14:12.599Z,987.27
2022-09-27T04:15:12.550Z,987.31
2022-09-27T04:16:12.556Z,987.30
2022-09-27T04:17:12.641Z,987.29
2022-09-27T04:18:12.511Z,987.30
2022-09-27T04:19:12.665Z,987.31
2022-09-27T04:20:12.517Z,987.34
2022-09-27T04:21:12.481Z,987.34
2022-09-27T04:22:12.480Z,987.36
2022-09-27T04:23:12.452Z,987.34
2022-09-27T04:24:12.450Z,987.33
2022-09-27T04:25:12.574Z,987.39
2022-09-27T04:26:12.415Z,987.40
2022-09-27T04:27:12.439Z,987.45
2022-09-27T04:28:12.446Z,987.41
2022-09-27T04:29:12.407Z,987.42
2022-09-27T04:30:12.392Z,987.44
2022-09-27T04:31:12.421Z,987.47
2022-09-27T04:32:12.398Z,987.46
2022-09-27T04:33:12.335Z,987.49
2022-09-27T04:34:12.328Z,987.50
2022-09-27T04:35:12.361Z,987.49
2022-09-27T04:36:12.350Z,987.51
2022-09-27T04:37:12.314Z,987.52
2022-09-27T04:38:12.314Z,987.53
2022-09-27T04:39:12.316Z,987.53
2022-09-27T04:40:12.266Z,987.52
2022-09-27T04:41:12.262Z,987.54
2022-09-27T04:42:12.269Z,987.56
2022-09-27T04:43:12.248Z,987.55
2022-09-27T04:44:12.235Z,987.58
2022-09-27T04:45:12.221Z,987.58
2022-09-27T04:46:12.216Z,987.58
2022-09-27T04:47:12.204Z,987.57
2022-09-27T04:48:12.183Z,987.54
2022-09-27T04:49:12.151Z,987.56
2022-09-27T04:50:12.150Z,987.56
2022-09-27T04:51:12.154Z,987.55
2022-09-27T04:52:12.137Z,987.55
2022-09-27T04:53:12.109Z,987.55
2022-09-27T04:54:12.092Z,987.60
2022-09-27T04:55:12.078Z,987.61
2022-09-27T04:56:12.072Z,987.64
2022-09-27T04:57:12.080Z,987.65
2022-09-27T04:58:12.071Z,987.65
2022-09-27T04:59:12.037Z,987.65
2022-09-27T05:00:12.036Z,987.68
2022-09-27T05:01:12.052Z,987.69
2022-09-27T05:02:12.051Z,987.70
2022-09-27T05:03:11.996Z,987.74
2022-09-27T05:04:12.006Z,987.70
2022-09-27T05:05:12.011Z,987.77
2022-09-27T05:06:11.975Z,987.76
2022-09-27T05:07:11.973Z,987.74
2022-09-27T05:08:11.949Z,987.78
2022-09-27T05:09:11.936Z,987.80
2022-09-27T05:10:11.937Z,987.78
2022-09-27T05:11:11.911Z,987.80
2022-09-27T05:12:11.907Z,987.81
2022-09-27T05:13:11.882Z,987.82
2022-09-27T05:14:11.948Z,987.82
2022-09-27T05:15:11.881Z,987.79
2022-09-27T05:16:11.936Z,987.83
2022-09-27T05:17:11.967Z,987.80
2022-09-27T05:18:11.821Z,987.88
2022-09-27T05:19:11.814Z,987.84
2022-09-27T05:20:11.836Z,987.81
2022-09-27T05:21:11.813Z,987.81
2022-09-27T05:22:11.802Z,987.84
2022-09-27T05:23:11.811Z,987.88
2022-09-27T05:24:11.755Z,987.85
2022-09-27T05:25:11.769Z,987.84
2022-09-27T05:26:11.737Z,987.83
2022-09-27T05:27:11.741Z,987.89
2022-09-27T05:28:11.709Z,987.86
2022-09-27T05:29:11.701Z,987.89
2022-09-27T05:30:11.697Z,987.88
2022-09-27T05:31:11.753Z,987.92
2022-09-27T05:32:11.685Z,987.93
2022-09-27T05:33:11.675Z,987.88
2022-09-27T05:34:11.641Z,987.94
2022-09-27T05:35:11.630Z,987.91
2022-09-27T05:36:11.620Z,987.89
2022-09-27T05:37:11.652Z,987.95
2022-09-27T05:38:11.604Z,987.93
2022-09-27T05:39:11.628Z,987.96
2022-09-27T05:40:22.912Z,987.94
2022-09-27T05:41:11.653Z,987.96
2022-09-27T05:42:11.575Z,987.97
2022-09-27T05:43:11.540Z,987.96
2022-09-27T05:44:11.538Z,987.99
2022-09-27T05:45:11.531Z,987.98
2022-09-27T05:46:11.619Z,987.93
2022-09-27T05:47:11.531Z,988.00
2022-09-27T05:48:11.506Z,987.99
2022-09-27T05:49:11.521Z,988.01
2022-09-27T05:50:11.469Z,988.00
2022-09-27T05:51:11.455Z,988.04
2022-09-27T05:52:15.074Z,988.01
2022-09-27T05:53:11.446Z,988.03
2022-09-27T05:54:11.448Z,988.02
2022-09-27T05:55:11.421Z,988.11
2022-09-27T05:56:11.396Z,988.04
2022-09-27T05:57:11.398Z,988.05
2022-09-27T05:58:11.380Z,988.05
2022-09-27T05:59:11.354Z,988.06
2022-09-27T06:00:11.354Z,988.10
2022-09-27T06:01:11.404Z,988.08
2022-09-27T06:02:11.548Z,988.08
2022-09-27T06:03:11.337Z,988.09
2022-09-27T06:04:11.380Z,988.08
2022-09-27T06:05:11.277Z,988.06
2022-09-27T06:06:11.283Z,988.07
2022-09-27T06:07:11.284Z,988.09
2022-09-27T06:08:11.289Z,988.05
2022-09-27T06:09:11.257Z,988.03
2022-09-27T06:10:11.239Z,988.05
2022-09-27T06:11:11.214Z,988.08
2022-09-27T06:12:11.231Z,988.09
2022-09-27T06:13:11.249Z,988.09
2022-09-27T06:14:11.196Z,988.15
2022-09-27T06:15:11.182Z,988.09
2022-09-27T06:16:11.161Z,988.09
2022-09-27T06:17:11.169Z,988.11
2022-09-27T06:18:11.200Z,988.14
2022-09-27T06:19:11.215Z,988.14
2022-09-27T06:20:11.157Z,988.14
2022-09-27T06:21:11.111Z,988.18
2022-09-27T06:22:11.107Z,988.18
2022-09-27T06:23:11.122Z,988.17
2022-09-27T06:24:11.070Z,988.18
2022-09-27T06:25:11.077Z,988.15
2022-09-27T06:26:11.080Z,988.19
2022-09-27T06:27:11.055Z,988.14
2022-09-27T06:28:11.057Z,988.18
2022-09-27T06:29:11.114Z,988.15
2022-09-27T06:30:11.031Z,988.19
2022-09-27T06:31:11.046Z,988.14
2022-09-27T06:32:11.102Z,988.17
2022-09-27T06:33:10.989Z,988.17
2022-09-27T06:34:10.961Z,988.18
2022-09-27T06:35:10.950Z,988.17
2022-09-27T06:36:11.039Z,988.26
2022-09-27T06:37:10.946Z,988.23
2022-09-27T06:38:11.013Z,988.24
2022-09-27T06:39:10.999Z,988.32
2022-09-27T06:40:10.913Z,988.35
2022-09-27T06:41:10.870Z,988.35
2022-09-27T06:42:10.888Z,988.38
2022-09-27T06:43:10.877Z,988.41
2022-09-27T06:44:10.846Z,988.38
2022-09-27T06:45:10.845Z,988.43
2022-09-27T06:46:10.861Z,988.47
2022-09-27T06:47:10.894Z,988.50
2022-09-27T06:48:10.796Z,988.50
2022-09-27T06:49:10.884Z,988.58
2022-09-27T06:50:10.781Z,988.54
2022-09-27T06:51:10.795Z,988.53
2022-09-27T06:52:10.800Z,988.51
2022-09-27T06:53:10.771Z,988.57
2022-09-27T06:54:10.744Z,988.58
2022-09-27T06:55:10.758Z,988.58
2022-09-27T06:56:10.707Z,988.58
2022-09-27T06:57:10.702Z,988.59
2022-09-27T06:58:10.711Z,988.60
2022-09-27T06:59:10.736Z,988.63
2022-09-27T07:00:10.695Z,988.60
2022-09-27T07:01:10.689Z,988.62
2022-09-27T07:02:10.707Z,988.63
2022-09-27T07:03:10.685Z,988.64
2022-09-27T07:04:10.621Z,988.60
2022-09-27T07:05:10.609Z,988.61
2022-09-27T07:06:10.617Z,988.62
2022-09-27T07:07:10.587Z,988.60
2022-09-27T07:08:10.584Z,988.65
2022-09-27T07:09:10.647Z,988.68
2022-09-27T07:10:10.559Z,988.63
2022-09-27T07:11:10.581Z,988.71
2022-09-27T07:12:10.522Z,988.68
2022-09-27T07:13:10.587Z,988.67
2022-09-27T07:14:10.556Z,988.66
2022-09-27T07:15:10.530Z,988.69
2022-09-27T07:16:10.538Z,988.72
2022-09-27T07:17:10.500Z,988.74
2022-09-27T07:18:10.509Z,988.72
2022-09-27T07:19:10.533Z,988.74
2022-09-27T07:20:10.473Z,988.73
2022-09-27T07:21:10.457Z,988.73
2022-09-27T07:22:10.444Z,988.81
2022-09-27T07:23:10.404Z,988.72
2022-09-27T07:24:10.400Z,988.77
2022-09-27T07:25:10.471Z,988.80
2022-09-27T07:26:10.420Z,988.73
2022-09-27T07:27:10.345Z,988.79
2022-09-27T07:28:10.345Z,988.77
2022-09-27T07:29:10.510Z,988.78
2022-09-27T07:30:10.415Z,988.81
2022-09-27T07:31:10.423Z,988.79
2022-09-27T07:32:10.420Z,988.79
2022-09-27T07:33:10.355Z,988.81
2022-09-27T07:34:10.282Z,988.83
2022-09-27T07:35:10.287Z,988.86
2022-09-27T07:36:10.327Z,988.83
2022-09-27T07:37:10.312Z,988.82
2022-09-27T07:38:10.234Z,988.86
2022-09-27T07:39:10.209Z,988.86
2022-09-27T07:40:10.225Z,988.88
2022-09-27T07:41:10.223Z,988.89
2022-09-27T07:42:10.191Z,988.89
2022-09-27T07:43:10.178Z,988.92
2022-09-27T07:44:10.192Z,988.93
2022-09-27T07:45:10.135Z,988.94
2022-09-27T07:46:10.173Z,988.98
2022-09-27T07:47:10.152Z,988.97
2022-09-27T07:48:10.131Z,989.02
2022-09-27T07:49:10.102Z,989.02
2022-09-27T07:50:10.104Z,988.99
2022-09-27T07:51:10.091Z,989.03
2022-09-27T07:52:10.179Z,989.01
2022-09-27T07:53:10.055Z,988.98
2022-09-27T07:54:10.059Z,989.02
2022-09-27T07:55:10.470Z,989.03
2022-09-27T07:56:10.070Z,989.00
2022-09-27T07:57:10.068Z,989.07
2022-09-27T07:58:10.012Z,989.06
2022-09-27T07:59:10.067Z,989.10
2022-09-27T08:00:09.988Z,989.12
2022-09-27T08:01:10.094Z,989.13
2022-09-27T08:02:09.985Z,989.11
2022-09-27T08:03:09.967Z,989.11
2022-09-27T08:04:09.954Z,989.12
2022-09-27T08:05:09.939Z,989.11
2022-09-27T08:06:09.961Z,989.14
2022-09-27T08:07:14.170Z,989.17
2022-09-27T08:08:09.931Z,989.18
2022-09-27T08:09:09.966Z,989.21
2022-09-27T08:10:09.889Z,989.18
2022-09-27T08:11:09.898Z,989.18
2022-09-27T08:12:09.866Z,989.21
2022-09-27T08:13:09.826Z,989.21
2022-09-27T08:14:09.863Z,989.20
2022-09-27T08:15:09.919Z,989.20
2022-09-27T08:16:09.942Z,989.18
2022-09-27T08:17:09.815Z,989.20
2022-09-27T08:18:09.781Z,989.23
2022-09-27T08:19:09.786Z,989.25
2022-09-27T08:20:09.766Z,989.24
2022-09-27T08:21:09.769Z,989.20
2022-09-27T08:22:09.751Z,989.24
2022-09-27T08:23:09.734Z,989.24
2022-09-27T08:24:09.703Z,989.22
2022-09-27T08:25:09.697Z,989.22
2022-09-27T08:26:09.736Z,989.25
2022-09-27T08:27:12.065Z,989.31
2022-09-27T08:28:09.662Z,989.29
2022-09-27T08:29:09.639Z,989.35
2022-09-27T08:30:09.647Z,989.29
2022-09-27T08:31:09.637Z,989.30
2022-09-27T08:32:09.613Z,989.28
2022-09-27T08:33:09.632Z,989.28
2022-09-27T08:34:09.675Z,989.27
2022-09-27T08:35:09.665Z,989.34
2022-09-27T08:36:09.598Z,989.32
2022-09-27T08:37:09.590Z,989.36
2022-09-27T08:38:09.546Z,989.35
2022-09-27T08:39:10.150Z,989.38
2022-09-27T08:40:09.538Z,989.41
2022-09-27T08:41:09.514Z,989.40
2022-09-27T08:42:09.567Z,989.36
2022-09-27T08:43:09.525Z,989.42
2022-09-27T08:44:09.488Z,989.42
2022-09-27T08:45:09.488Z,989.46
2022-09-27T08:46:09.576Z,989.40
2022-09-27T08:47:09.517Z,989.38
2022-09-27T08:48:09.431Z,989.41
2022-09-27T08:49:09.442Z,989.40
2022-09-27T08:50:09.407Z,989.42
2022-09-27T08:51:09.435Z,989.44
2022-09-27T08:52:09.411Z,989.44
2022-09-27T08:53:09.430Z,989.43
2022-09-27T08:54:09.465Z,989.42
2022-09-27T08:55:09.396Z,989.43
2022-09-27T08:56:09.343Z,989.48
2022-09-27T08:57:09.326Z,989.44
2022-09-27T08:58:09.356Z,989.40
2022-09-27T08:59:09.309Z,989.47
2022-09-27T09:00:09.352Z,989.48
2022-09-27T09:01:09.368Z,989.43
2022-09-27T09:02:09.342Z,989.45
2022-09-27T09:03:09.284Z,989.45
2022-09-27T09:04:09.356Z,989.45
2022-09-27T09:05:09.264Z,989.47
2022-09-27T09:06:09.225Z,989.46
2022-09-27T09:07:09.280Z,989.44
2022-09-27T09:08:09.250Z,989.49
2022-09-27T09:09:09.203Z,989.47
2022-09-27T09:10:09.259Z,989.52
2022-09-27T09:11:09.185Z,989.49
2022-09-27T09:12:09.237Z,989.49
2022-09-27T09:13:09.205Z,989.52
2022-09-27T09:14:13.343Z,989.51
2022-09-27T09:15:09.144Z,989.56
2022-09-27T09:16:09.202Z,989.53
2022-09-27T09:17:09.134Z,989.53
2022-09-27T09:18:09.117Z,989.51
2022-09-27T09:19:09.118Z,989.46
2022-09-27T09:20:12.226Z,989.54
2022-09-27T09:21:09.068Z,989.55
2022-09-27T09:22:09.047Z,989.49
2022-09-27T09:23:09.045Z,989.52
2022-09-27T09:24:09.054Z,989.46
2022-09-27T09:25:09.055Z,989.49
2022-09-27T09:26:09.028Z,989.49
2022-09-27T09:27:09.016Z,989.50
2022-09-27T09:28:08.973Z,989.53
2022-09-27T09:29:08.958Z,989.50
2022-09-27T09:30:08.951Z,989.45
2022-09-27T09:31:08.965Z,989.50
2022-09-27T09:32:08.981Z,989.51
2022-09-27T09:33:08.916Z,989.46
2022-09-27T09:34:08.983Z,989.55
2022-09-27T09:35:08.907Z,989.47
2022-09-27T09:36:08.882Z,989.53
2022-09-27T09:37:08.903Z,989.51
2022-09-27T09:38:08.874Z,989.53
2022-09-27T09:39:08.853Z,989.49
2022-09-27T09:40:09.333Z,989.48
2022-09-27T09:41:08.856Z,989.50
2022-09-27T09:42:08.916Z,989.45
2022-09-27T09:43:08.807Z,989.45
2022-09-27T09:44:08.818Z,989.43
2022-09-27T09:45:08.813Z,989.44
2022-09-27T09:46:08.955Z,989.48
2022-09-27T09:47:08.811Z,989.54
2022-09-27T09:48:08.754Z,989.41
2022-09-27T09:49:08.743Z,989.49
2022-09-27T09:50:08.727Z,989.45
2022-09-27T09:51:08.740Z,989.46
2022-09-27T09:52:09.242Z,989.45
2022-09-27T09:53:08.685Z,989.47
2022-09-27T09:54:08.814Z,989.48
2022-09-27T09:55:09.056Z,989.46
2022-09-27T09:56:08.664Z,989.43
2022-09-27T09:57:08.673Z,989.43
2022-09-27T09:58:08.641Z,989.48
2022-09-27T09:59:08.620Z,989.46
2022-09-27T10:00:08.671Z,989.41
2022-09-27T10:01:08.682Z,989.42
2022-09-27T10:02:08.640Z,989.50
2022-09-27T10:03:08.584Z,989.40
2022-09-27T10:04:08.554Z,989.44
2022-09-27T10:05:08.552Z,989.44
2022-09-27T10:06:08.552Z,989.49
2022-09-27T10:07:08.529Z,989.38
2022-09-27T10:08:08.506Z,989.46
2022-09-27T10:09:08.521Z,989.47
2022-09-27T10:10:08.505Z,989.46
2022-09-27T10:11:08.493Z,989.43
2022-09-27T10:12:08.497Z,989.43
2022-09-27T10:13:08.462Z,989.42
2022-09-27T10:14:08.480Z,989.42
2022-09-27T10:15:08.440Z,989.41
2022-09-27T10:16:08.512Z,989.37
2022-09-27T10:17:08.425Z,989.40
2022-09-27T10:18:08.397Z,989.35
2022-09-27T10:19:08.384Z,989.38
2022-09-27T10:20:08.371Z,989.35
2022-09-27T10:21:08.413Z,989.37
2022-09-27T10:22:08.369Z,989.35
2022-09-27T10:23:08.360Z,989.41
2022-09-27T10:24:09.648Z,989.38
2022-09-27T10:25:08.319Z,989.40
2022-09-27T10:26:08.307Z,989.41
2022-09-27T10:27:08.300Z,989.38
2022-09-27T10:28:08.307Z,989.39
2022-09-27T10:29:08.292Z,989.41
2022-09-27T10:30:08.299Z,989.37
2022-09-27T10:31:08.269Z,989.35
2022-09-27T10:32:08.247Z,989.38
2022-09-27T10:33:08.256Z,989.40
2022-09-27T10:34:08.320Z,989.39
2022-09-27T10:35:08.201Z,989.36
2022-09-27T10:36:08.204Z,989.34
2022-09-27T10:37:08.190Z,989.35
2022-09-27T10:38:08.223Z,989.32
2022-09-27T10:39:08.168Z,989.31
2022-09-27T10:40:08.161Z,989.34
2022-09-27T10:41:08.136Z,989.33
2022-09-27T10:42:08.141Z,989.32
2022-09-27T10:43:08.131Z,989.32
2022-09-27T10:44:08.102Z,989.35
2022-09-27T10:45:08.096Z,989.33
2022-09-27T10:46:08.124Z,989.31
2022-09-27T10:47:08.092Z,989.37
2022-09-27T10:48:08.087Z,989.30
2022-09-27T10:49:08.042Z,989.32
2022-09-27T10:50:08.168Z,989.27
2022-09-27T10:51:08.018Z,989.27
2022-09-27T10:52:08.025Z,989.30
2022-09-27T10:53:08.001Z,989.24
2022-09-27T10:54:08.015Z,989.28
2022-09-27T10:55:07.977Z,989.29
2022-09-27T10:56:08.570Z,989.28
2022-09-27T10:57:07.959Z,989.28
2022-09-27T10:58:07.955Z,989.28
2022-09-27T10:59:07.953Z,989.25
2022-09-27T11:00:07.928Z,989.30
2022-09-27T11:01:07.962Z,989.23
2022-09-27T11:02:07.905Z,989.28
2022-09-27T11:03:07.885Z,989.24
2022-09-27T11:04:07.924Z,989.22
2022-09-27T11:05:11.223Z,989.28
2022-09-27T11:06:07.868Z,989.26
2022-09-27T11:07:07.855Z,989.31
2022-09-27T11:08:07.851Z,989.29
2022-09-27T11:09:07.834Z,989.28
2022-09-27T11:10:07.819Z,989.32
2022-09-27T11:11:07.800Z,989.35
2022-09-27T11:12:07.898Z,989.32
2022-09-27T11:13:07.824Z,989.32
2022-09-27T11:14:07.803Z,989.29
2022-09-27T11:15:07.777Z,989.29
2022-09-27T11:16:07.870Z,989.30
2022-09-27T11:17:07.805Z,989.31
2022-09-27T11:18:07.730Z,989.30
2022-09-27T11:19:10.856Z,989.31
2022-09-27T11:20:07.727Z,989.33
2022-09-27T11:21:07.697Z,989.28
2022-09-27T11:22:07.693Z,989.35
2022-09-27T11:23:07.684Z,989.34
2022-09-27T11:24:07.691Z,989.32
2022-09-27T11:25:07.698Z,989.37
2022-09-27T11:26:07.632Z,989.40
2022-09-27T11:27:07.636Z,989.36
2022-09-27T11:28:07.612Z,989.40
2022-09-27T11:29:07.593Z,989.39
2022-09-27T11:30:07.600Z,989.44
2022-09-27T11:31:07.649Z,989.38
2022-09-27T11:32:07.623Z,989.39
2022-09-27T11:33:07.560Z,989.41
2022-09-27T11:34:07.536Z,989.39
2022-09-27T11:35:07.549Z,989.35
2022-09-27T11:36:07.513Z,989.34
2022-09-27T11:37:07.541Z,989.39
2022-09-27T11:38:07.504Z,989.38
2022-09-27T11:39:07.490Z,989.34
2022-09-27T11:40:07.521Z,989.27
2022-09-27T11:41:07.456Z,989.30
2022-09-27T11:42:07.465Z,989.29
2022-09-27T11:43:07.433Z,989.30
2022-09-27T11:44:07.422Z,989.25
2022-09-27T11:45:31.968Z,989.22
2022-09-27T11:46:19.247Z,989.21
2022-09-27T11:47:07.557Z,989.20
2022-09-27T11:48:07.432Z,989.21
2022-09-27T11:49:07.369Z,989.24
2022-09-27T11:50:07.353Z,989.22
2022-09-27T11:51:07.375Z,989.25
2022-09-27T11:52:07.336Z,989.26
2022-09-27T11:53:07.350Z,989.20
2022-09-27T11:54:07.308Z,989.14
2022-09-27T11:55:07.303Z,989.26
2022-09-27T11:56:07.319Z,989.17
2022-09-27T11:57:07.285Z,989.23
2022-09-27T11:58:07.271Z,989.18
2022-09-27T11:59:07.259Z,989.09
2022-09-27T12:00:07.244Z,989.13
2022-09-27T12:01:07.277Z,989.18
2022-09-27T12:02:07.342Z,989.18
2022-09-27T12:03:07.257Z,989.18
2022-09-27T12:04:07.196Z,989.20
2022-09-27T12:05:07.222Z,989.22
2022-09-27T12:06:07.798Z,989.27
2022-09-27T12:07:07.173Z,989.20
2022-09-27T12:08:07.154Z,989.23
2022-09-27T12:09:07.147Z,989.22
2022-09-27T12:10:07.126Z,989.23
2022-09-27T12:11:07.143Z,989.18
2022-09-27T12:12:07.111Z,989.21
2022-09-27T12:13:07.103Z,989.26
2022-09-27T12:14:07.074Z,989.20
2022-09-27T12:15:07.533Z,989.22
2022-09-27T12:16:07.185Z,989.24
2022-09-27T12:17:07.050Z,989.25
2022-09-27T12:18:07.031Z,989.24
2022-09-27T12:19:07.030Z,989.35
2022-09-27T12:20:07.021Z,989.33
2022-09-27T12:21:07.031Z,989.30
2022-09-27T12:22:06.983Z,989.30
2022-09-27T12:23:06.977Z,989.28
2022-09-27T12:24:06.964Z,989.23
2022-09-27T12:25:06.951Z,989.27
2022-09-27T12:26:06.970Z,989.30
2022-09-27T12:27:06.962Z,989.30
2022-09-27T12:28:06.924Z,989.32